Time;durP1;ratioP1;P1;durP2;ratioP2;P2;SDS_P1;SDS_P2;PMS_P1;PMS_P2;Temp;Humidity;BMP_temperature;BMP_pressure;BME280_temperature;BME280_humidity;BME280_pressure;Samples;Min_cycle;Max_cycle;Signal;HPM_P1;HPM_P2
2021/06/10 00:00:33;;;;;;;14.43;7.97;;;21.70;74.20;;;;;;4973323;28;20034;-69
2021/06/10 00:02:59;;;;;;;9.98;7.25;;;21.70;73.60;;;;;;4973351;28;20069;-69
2021/06/10 00:05:25;;;;;;;13.02;7.95;;;21.60;74.20;;;;;;4973072;28;20420;-69
2021/06/10 00:07:50;;;;;;;11.27;7.88;;;21.60;74.40;;;;;;4973381;28;20054;-69
2021/06/10 00:10:18;;;;;;;12.52;8.13;;;21.60;74.50;;;;;;4973304;28;20079;-69
2021/06/10 00:12:44;;;;;;;9.13;7.20;;;21.60;74.50;;;;;;4973433;28;20034;-69
2021/06/10 00:15:17;;;;;;;11.30;7.63;;;21.50;74.50;;;;;;4973149;28;20023;-69
2021/06/10 00:17:43;;;;;;;10.65;7.93;;;21.50;74.50;;;;;;4973466;28;20066;-69
2021/06/10 00:20:11;;;;;;;11.27;7.68;;;21.50;74.70;;;;;;4973229;28;20487;-69
2021/06/10 00:22:37;;;;;;;9.80;7.13;;;21.50;74.70;;;;;;4973064;28;20459;-69
2021/06/10 00:25:04;;;;;;;12.43;7.50;;;21.50;74.90;;;;;;4972884;28;20031;-69
2021/06/10 00:27:30;;;;;;;10.73;7.75;;;21.60;75.00;;;;;;4973083;28;20038;-69
2021/06/10 00:29:56;;;;;;;13.00;8.02;;;21.60;75.00;;;;;;4972939;28;20476;-69
2021/06/10 00:32:22;;;;;;;17.52;7.70;;;21.60;75.00;;;;;;4972859;28;20051;-69
2021/06/10 00:34:47;;;;;;;11.10;8.00;;;21.60;74.90;;;;;;4972757;28;20053;-69
2021/06/10 00:37:13;;;;;;;12.23;7.80;;;21.60;74.90;;;;;;4972381;28;20111;-69
2021/06/10 00:39:41;;;;;;;12.05;7.55;;;21.60;74.80;;;;;;4972667;28;20054;-69
2021/06/10 00:42:08;;;;;;;14.10;7.43;;;21.60;74.60;;;;;;4972825;28;20399;-68
2021/06/10 00:44:34;;;;;;;13.00;8.60;;;;;;;;;;4972369;28;20478;-69
2021/06/10 00:47:01;;;;;;;11.18;7.65;;;21.60;74.00;;;;;;4972640;28;20384;-69
2021/06/10 00:49:26;;;;;;;11.75;8.38;;;21.60;74.70;;;;;;4972471;28;20034;-69
2021/06/10 00:51:54;;;;;;;11.98;9.15;;;21.50;74.90;;;;;;4972762;28;20027;-69
2021/06/10 00:54:20;;;;;;;12.23;8.10;;;21.50;74.90;;;;;;4972685;28;20030;-69
2021/06/10 00:56:46;;;;;;;12.43;9.02;;;21.50;75.00;;;;;;4971322;28;20027;-68
2021/06/10 00:59:12;;;;;;;11.32;9.27;;;21.50;75.10;;;;;;4970016;28;20549;-69
2021/06/10 01:01:37;;;;;;;10.43;8.80;;;21.50;75.00;;;;;;4969756;28;20047;-69
2021/06/10 01:04:03;;;;;;;10.50;9.40;;;21.50;75.10;;;;;;4970370;28;20495;-69
2021/06/10 01:06:31;;;;;;;16.67;10.05;;;21.50;75.10;;;;;;4972394;28;20115;-69
2021/06/10 01:09:00;;;;;;;10.75;9.73;;;21.50;75.20;;;;;;4971995;28;20509;-69
2021/06/10 01:11:56;;;;;;;15.20;9.40;;;21.50;74.90;;;;;;4972279;28;20034;-69
2021/06/10 01:14:46;;;;;;;13.48;8.40;;;21.50;74.70;;;;;;4972176;28;20050;-69
2021/06/10 01:17:13;;;;;;;12.75;9.43;;;21.50;75.00;;;;;;4972406;28;20031;-69
2021/06/10 01:19:41;;;;;;;12.63;9.32;;;21.40;75.30;;;;;;4972292;28;20106;-68
2021/06/10 01:22:14;;;;;;;12.20;8.63;;;21.40;75.20;;;;;;4972107;28;20035;-69
2021/06/10 01:24:46;;;;;;;13.18;8.25;;;21.40;75.10;;;;;;4972079;28;20105;-69
2021/06/10 01:27:35;;;;;;;11.93;9.98;;;21.40;75.00;;;;;;4972142;28;20088;-70
2021/06/10 01:30:08;;;;;;;10.57;8.20;;;21.40;74.70;;;;;;4971773;28;20022;-69
2021/06/10 01:32:37;;;;;;;13.48;8.40;;;21.40;74.80;;;;;;4971995;28;20088;-69
2021/06/10 01:35:03;;;;;;;11.68;8.35;;;21.40;75.40;;;;;;4971957;28;20023;-69
2021/06/10 01:37:31;;;;;;;12.75;8.00;;;21.40;76.20;;;;;;4971728;28;20053;-68
2021/06/10 01:39:58;;;;;;;12.45;7.88;;;21.40;75.90;;;;;;4972076;28;20490;-69
2021/06/10 01:42:24;;;;;;;10.77;7.85;;;21.40;76.70;;;;;;4971812;28;20099;-69
2021/06/10 01:44:51;;;;;;;10.35;8.35;;;21.40;77.00;;;;;;4971877;28;20050;-69
2021/06/10 01:47:19;;;;;;;10.07;8.32;;;21.40;76.40;;;;;;4971948;28;20533;-69
2021/06/10 01:49:45;;;;;;;14.13;9.00;;;21.40;76.30;;;;;;4971599;28;20033;-69
2021/06/10 01:52:12;;;;;;;17.02;9.20;;;21.30;76.50;;;;;;4971725;28;20023;-69
2021/06/10 01:54:38;;;;;;;12.35;9.55;;;21.30;76.00;;;;;;4971819;28;20027;-69
2021/06/10 01:57:05;;;;;;;11.77;9.63;;;21.20;77.00;;;;;;4971747;28;20105;-68
2021/06/10 01:59:32;;;;;;;10.27;8.48;;;21.20;77.30;;;;;;4971681;28;20471;-68
2021/06/10 02:02:00;;;;;;;14.00;9.38;;;21.20;77.50;;;;;;4971579;28;20041;-69
2021/06/10 02:04:27;;;;;;;12.60;9.38;;;21.20;77.40;;;;;;4971720;28;20387;-69
2021/06/10 02:06:55;;;;;;;13.98;9.32;;;21.20;77.60;;;;;;4971703;28;20494;-69
2021/06/10 02:09:22;;;;;;;10.15;9.13;;;21.10;77.60;;;;;;4971200;28;20058;-69
2021/06/10 02:11:49;;;;;;;14.52;9.30;;;21.10;77.30;;;;;;4970339;28;20048;-69
2021/06/10 02:14:18;;;;;;;12.80;9.05;;;21.00;77.80;;;;;;4971361;28;20027;-69
2021/06/10 02:16:44;;;;;;;11.82;9.23;;;21.00;78.20;;;;;;4971242;28;20384;-69
2021/06/10 02:19:11;;;;;;;10.27;9.02;;;21.00;78.90;;;;;;4971332;28;20038;-70
2021/06/10 02:21:37;;;;;;;12.35;9.07;;;21.00;79.00;;;;;;4970992;28;20027;-69
2021/06/10 02:24:03;;;;;;;11.20;8.98;;;20.90;78.50;;;;;;4971261;28;20490;-69
2021/06/10 02:26:29;;;;;;;10.95;8.38;;;20.90;78.60;;;;;;4971197;28;20027;-68
2021/06/10 02:28:55;;;;;;;8.52;7.72;;;20.90;78.30;;;;;;4971611;28;20030;-69
2021/06/10 02:31:20;;;;;;;10.35;8.30;;;20.90;78.10;;;;;;4971398;28;20066;-68
2021/06/10 02:33:46;;;;;;;9.60;7.78;;;20.90;77.90;;;;;;4971348;28;20054;-69
2021/06/10 02:36:17;;;;;;;8.88;7.93;;;20.80;78.20;;;;;;4971324;28;20015;-69
2021/06/10 02:38:52;;;;;;;9.60;8.60;;;20.80;78.20;;;;;;4971208;28;20046;-69
2021/06/10 02:41:19;;;;;;;12.60;8.10;;;20.80;78.90;;;;;;4971305;28;20076;-69
2021/06/10 02:43:46;;;;;;;9.88;7.47;;;20.80;78.90;;;;;;4971157;28;20065;-69
2021/06/10 02:46:14;;;;;;;8.90;7.20;;;20.90;78.60;;;;;;4971040;28;20382;-69
2021/06/10 02:48:41;;;;;;;7.82;6.53;;;20.90;77.90;;;;;;4971040;28;20019;-68
2021/06/10 02:51:08;;;;;;;10.75;6.65;;;20.90;76.70;;;;;;4971272;28;20034;-69
2021/06/10 02:53:35;;;;;;;10.50;6.85;;;20.90;76.10;;;;;;4970921;28;20051;-69
2021/06/10 02:56:03;;;;;;;9.15;6.68;;;20.90;75.50;;;;;;4971112;28;20027;-69
2021/06/10 02:58:30;;;;;;;11.05;6.22;;;20.90;75.70;;;;;;4971222;28;20486;-69
2021/06/10 03:00:57;;;;;;;7.93;6.90;;;20.90;75.00;;;;;;4971290;28;20065;-69
2021/06/10 03:03:23;;;;;;;11.18;7.72;;;20.80;75.30;;;;;;4970810;28;20058;-69
2021/06/10 03:05:49;;;;;;;7.63;6.93;;;20.80;75.60;;;;;;4970879;28;20049;-69
2021/06/10 03:08:18;;;;;;;13.13;7.15;;;20.80;76.40;;;;;;4970587;28;20030;-69
2021/06/10 03:10:45;;;;;;;12.20;7.15;;;20.70;76.70;;;;;;4970873;28;20410;-69
2021/06/10 03:13:14;;;;;;;10.02;7.13;;;20.60;77.90;;;;;;4971157;28;20497;-68
2021/06/10 03:15:41;;;;;;;8.93;7.85;;;20.50;78.70;;;;;;4970913;28;20098;-69
2021/06/10 03:18:07;;;;;;;10.30;6.80;;;20.40;79.30;;;;;;4970832;28;20395;-68
2021/06/10 03:20:33;;;;;;;9.98;7.25;;;20.50;79.90;;;;;;4972485;28;20023;-69
2021/06/10 03:23:00;;;;;;;9.57;6.43;;;20.50;79.40;;;;;;4974176;28;20035;-69
2021/06/10 03:25:27;;;;;;;7.80;6.63;;;20.50;78.20;;;;;;4974109;28;20029;-68
2021/06/10 03:27:53;;;;;;;7.00;6.30;;;20.60;77.10;;;;;;4974165;28;20866;-69
2021/06/10 03:30:19;;;;;;;9.57;6.35;;;20.60;77.30;;;;;;4974020;28;20058;-69
2021/06/10 03:32:46;;;;;;;8.05;6.18;;;20.60;77.00;;;;;;4973785;28;20054;-69
2021/06/10 03:35:13;;;;;;;6.20;5.68;;;20.60;76.80;;;;;;4973709;28;20023;-69
2021/06/10 03:37:40;;;;;;;6.25;5.65;;;20.60;75.70;;;;;;4973783;28;20092;-69
2021/06/10 03:40:08;;;;;;;6.63;5.25;;;20.60;75.50;;;;;;4973962;28;20023;-68
2021/06/10 03:42:36;;;;;;;7.43;5.50;;;20.60;75.40;;;;;;4973891;28;20084;-69
2021/06/10 03:45:04;;;;;;;9.00;5.32;;;20.60;75.40;;;;;;4973885;28;20381;-68
2021/06/10 03:47:30;;;;;;;10.35;5.82;;;20.60;75.20;;;;;;4973791;28;20418;-68
2021/06/10 03:49:56;;;;;;;12.65;5.00;;;20.60;74.30;;;;;;4973395;28;20089;-69
2021/06/10 03:52:27;;;;;;;9.38;5.40;;;20.60;73.70;;;;;;4973727;28;20073;-68
2021/06/10 03:54:53;;;;;;;9.07;5.28;;;20.60;74.30;;;;;;4973550;28;20106;-69
2021/06/10 03:57:18;;;;;;;6.82;5.78;;;20.50;74.70;;;;;;4973671;28;20109;-69
2021/06/10 03:59:44;;;;;;;7.60;5.40;;;20.50;74.10;;;;;;4973770;28;20035;-68
2021/06/10 04:02:10;;;;;;;6.45;5.63;;;20.60;74.50;;;;;;4973496;28;20072;-69
2021/06/10 04:04:35;;;;;;;5.68;4.95;;;20.60;74.80;;;;;;4973233;28;20399;-68
2021/06/10 04:07:01;;;;;;;9.30;5.97;;;20.60;74.50;;;;;;4973581;28;20063;-68
2021/06/10 04:09:27;;;;;;;7.20;6.07;;;20.60;75.00;;;;;;4973645;28;20027;-69
2021/06/10 04:11:52;;;;;;;6.75;5.45;;;20.70;75.50;;;;;;4973328;28;20028;-69
2021/06/10 04:14:18;;;;;;;8.82;5.18;;;20.60;74.90;;;;;;4973515;28;20307;-69
2021/06/10 04:16:45;;;;;;;7.03;5.65;;;20.60;75.10;;;;;;4973373;28;20054;-68
2021/06/10 04:19:12;;;;;;;7.07;5.20;;;20.60;75.40;;;;;;4973526;28;20486;-69
2021/06/10 04:21:38;;;;;;;6.60;5.53;;;20.60;76.00;;;;;;4973288;28;20047;-68
2021/06/10 04:24:04;;;;;;;6.07;5.40;;;20.60;75.50;;;;;;4973149;28;20111;-69
2021/06/10 04:26:30;;;;;;;6.25;5.65;;;20.60;75.40;;;;;;4973101;28;20027;-69
2021/06/10 04:28:55;;;;;;;8.95;5.70;;;20.60;76.30;;;;;;4973061;28;20049;-69
2021/06/10 04:31:21;;;;;;;8.50;5.75;;;20.70;76.50;;;;;;4972732;28;20031;-69
2021/06/10 04:33:48;;;;;;;8.07;5.63;;;20.70;76.70;;;;;;4972604;28;20078;-68
2021/06/10 04:36:15;;;;;;;6.30;5.22;;;20.80;76.70;;;;;;4972888;28;20425;-69
2021/06/10 04:38:41;;;;;;;6.15;5.35;;;20.80;76.20;;;;;;4972311;28;20057;-69
2021/06/10 04:41:07;;;;;;;7.05;6.28;;;20.80;75.70;;;;;;4972999;28;20103;-68
2021/06/10 04:43:33;;;;;;;5.57;4.93;;;20.80;76.60;;;;;;4972907;28;20365;-69
2021/06/10 04:45:59;;;;;;;7.55;5.68;;;20.80;77.00;;;;;;4972827;28;20037;-69
2021/06/10 04:48:26;;;;;;;10.38;5.85;;;20.80;76.50;;;;;;4972373;28;20418;-69
2021/06/10 04:50:52;;;;;;;6.80;5.13;;;20.80;76.40;;;;;;4972790;28;20027;-68
2021/06/10 04:53:19;;;;;;;8.15;5.10;;;20.80;76.30;;;;;;4972818;28;20035;-70
2021/06/10 04:55:45;;;;;;;11.07;5.57;;;20.80;77.10;;;;;;4972637;28;20034;-68
2021/06/10 04:58:12;;;;;;;12.15;4.97;;;20.80;76.60;;;;;;4972364;28;20038;-69
2021/06/10 05:00:38;;;;;;;8.02;5.57;;;20.90;76.40;;;;;;4972508;28;20049;-69
2021/06/10 05:03:05;;;;;;;7.97;5.45;;;20.90;76.50;;;;;;4972925;28;20375;-69
2021/06/10 05:05:32;;;;;;;8.85;5.65;;;20.80;75.90;;;;;;4972568;28;20037;-69
2021/06/10 05:07:57;;;;;;;9.10;5.72;;;20.90;75.60;;;;;;4972761;28;20361;-68
2021/06/10 05:10:23;;;;;;;8.85;5.93;;;20.90;75.70;;;;;;4972338;28;20038;-69
2021/06/10 05:12:49;;;;;;;9.45;6.35;;;20.90;76.10;;;;;;4972260;28;20165;-69
2021/06/10 05:15:15;;;;;;;5.93;5.40;;;20.90;76.30;;;;;;4972184;28;20034;-68
2021/06/10 05:17:40;;;;;;;7.50;6.43;;;20.90;76.50;;;;;;4972306;28;20364;-69
2021/06/10 05:20:07;;;;;;;7.03;5.60;;;20.90;77.10;;;;;;4972486;28;20042;-68
2021/06/10 05:22:32;;;;;;;7.45;5.78;;;20.90;77.50;;;;;;4972134;28;20027;-68
2021/06/10 05:24:58;;;;;;;10.35;5.75;;;21.00;77.60;;;;;;4970563;28;20033;-69
2021/06/10 05:27:24;;;;;;;8.05;6.03;;;20.90;77.70;;;;;;4970514;28;20140;-69
2021/06/10 05:29:50;;;;;;;7.25;5.93;;;21.00;78.00;;;;;;4971423;28;20022;-69
2021/06/10 05:32:15;;;;;;;7.18;6.43;;;21.00;78.40;;;;;;4970807;28;20120;-69
2021/06/10 05:34:41;;;;;;;8.10;6.35;;;21.00;78.40;;;;;;4970368;28;20019;-69
2021/06/10 05:37:07;;;;;;;8.70;6.05;;;21.00;79.10;;;;;;4971007;28;20178;-69
2021/06/10 05:39:32;;;;;;;10.15;5.90;;;21.00;78.80;;;;;;4970829;28;20049;-69
2021/06/10 05:41:58;;;;;;;18.17;6.03;;;21.00;78.90;;;;;;4970169;28;20027;-69
2021/06/10 05:44:24;;;;;;;8.80;6.93;;;21.00;79.20;;;;;;4971005;28;20041;-69
2021/06/10 05:46:50;;;;;;;9.10;6.03;;;21.10;79.50;;;;;;4971879;28;20019;-69
2021/06/10 05:49:16;;;;;;;7.05;6.20;;;21.10;79.70;;;;;;4971888;28;20364;-68
2021/06/10 05:51:42;;;;;;;7.25;6.35;;;21.10;79.70;;;;;;4971811;28;20034;-69
2021/06/10 05:54:08;;;;;;;7.82;6.45;;;21.10;79.50;;;;;;4965816;28;20519;-68
2021/06/10 05:56:34;;;;;;;9.25;6.93;;;21.10;79.70;;;;;;4952710;28;20027;-68
2021/06/10 05:58:59;;;;;;;7.47;6.78;;;21.20;80.00;;;;;;4951787;28;20393;-69
2021/06/10 06:01:25;;;;;;;9.20;7.47;;;21.20;80.20;;;;;;4952267;28;20023;-69
2021/06/10 06:03:51;;;;;;;7.30;6.60;;;21.20;79.80;;;;;;4951830;28;20086;-70
2021/06/10 06:06:18;;;;;;;8.50;6.05;;;21.30;79.70;;;;;;4950971;28;20106;-69
2021/06/10 06:08:45;;;;;;;8.07;7.10;;;21.30;78.90;;;;;;4951706;28;20437;-69
2021/06/10 06:11:11;;;;;;;11.43;6.93;;;21.40;78.90;;;;;;4950950;28;20027;-70
2021/06/10 06:13:47;;;;;;;9.05;7.32;;;21.40;79.10;;;;;;4950725;28;20161;-69
2021/06/10 06:16:19;;;;;;;10.52;7.72;;;21.40;79.30;;;;;;4950678;28;20031;-68
2021/06/10 06:18:45;;;;;;;12.93;8.00;;;21.50;78.90;;;;;;4952066;28;20042;-69
2021/06/10 06:21:13;;;;;;;14.10;7.43;;;21.60;78.80;;;;;;4952223;29;20031;-69
2021/06/10 06:23:41;;;;;;;19.85;7.70;;;21.60;77.80;;;;;;4951932;28;20035;-69
2021/06/10 06:26:09;;;;;;;11.07;7.55;;;21.60;77.50;;;;;;4949128;28;20063;-69
2021/06/10 06:28:36;;;;;;;13.10;7.47;;;21.60;76.70;;;;;;4949559;28;20851;-69
2021/06/10 06:31:02;;;;;;;10.48;7.78;;;21.60;76.60;;;;;;4949874;28;20158;-72
2021/06/10 06:33:28;;;;;;;10.98;7.40;;;21.70;77.10;;;;;;4951948;28;20066;-69
2021/06/10 06:35:55;;;;;;;12.75;8.10;;;21.70;77.40;;;;;;4952163;29;20027;-68
2021/06/10 06:38:20;;;;;;;10.48;8.00;;;21.70;77.50;;;;;;4951748;28;20046;-71
2021/06/10 06:40:48;;;;;;;13.38;6.72;;;21.80;77.80;;;;;;4951494;28;20027;-71
2021/06/10 06:43:14;;;;;;;8.23;7.35;;;21.80;77.70;;;;;;4951810;28;20046;-73
2021/06/10 06:45:40;;;;;;;10.63;6.90;;;21.90;77.40;;;;;;4950257;28;20038;-72
2021/06/10 06:48:05;;;;;;;10.55;7.18;;;21.90;77.20;;;;;;4947356;28;20043;-72
2021/06/10 06:50:31;;;;;;;11.40;7.13;;;22.00;77.00;;;;;;4948859;28;20046;-76
2021/06/10 06:52:57;;;;;;;9.45;7.50;;;22.00;77.40;;;;;;4957518;28;20085;-75
2021/06/10 06:55:23;;;;;;;11.45;6.15;;;22.00;77.50;;;;;;5053464;28;20053;-71
2021/06/10 06:57:48;;;;;;;7.25;6.38;;;22.00;77.40;;;;;;4970161;28;20039;-73
2021/06/10 07:00:15;;;;;;;10.20;7.10;;;22.10;77.70;;;;;;4954174;28;20034;-71
2021/06/10 07:02:40;;;;;;;8.95;6.53;;;22.10;77.30;;;;;;4954435;28;20085;-75
2021/06/10 07:05:07;;;;;;;8.95;5.95;;;22.10;76.60;;;;;;5029618;28;20025;-70
2021/06/10 07:07:32;;;;;;;7.50;6.22;;;22.20;76.40;;;;;;5055887;28;20025;-70
2021/06/10 07:09:58;;;;;;;8.32;6.45;;;22.10;76.60;;;;;;5055755;28;20053;-73
2021/06/10 07:12:24;;;;;;;6.75;5.97;;;22.20;76.70;;;;;;5055732;28;20047;-72
2021/06/10 07:14:50;;;;;;;10.13;5.90;;;22.20;76.90;;;;;;5071581;28;20063;-73
2021/06/10 07:17:16;;;;;;;5.95;4.90;;;22.20;76.80;;;;;;5056004;28;20041;-76
2021/06/10 07:19:41;;;;;;;7.20;4.85;;;22.20;76.70;;;;;;5056248;28;20021;-76
2021/06/10 07:22:09;;;;;;;4.80;4.35;;;22.30;76.20;;;;;;5055171;28;20017;-70
2021/06/10 07:24:35;;;;;;;4.88;4.35;;;22.30;75.60;;;;;;5055107;28;20112;-70
2021/06/10 07:27:01;;;;;;;7.82;3.90;;;22.30;75.20;;;;;;5054603;28;20100;-70
2021/06/10 07:29:27;;;;;;;6.95;3.92;;;22.40;74.50;;;;;;5055972;28;20462;-74
2021/06/10 07:31:52;;;;;;;7.20;4.20;;;22.40;73.10;;;;;;5053611;28;20074;-69
2021/06/10 07:34:18;;;;;;;5.57;3.60;;;22.40;72.40;;;;;;5054583;28;20064;-70
2021/06/10 07:36:44;;;;;;;6.68;3.25;;;22.40;72.60;;;;;;5054788;28;20505;-71
2021/06/10 07:39:10;;;;;;;3.92;3.10;;;22.50;71.30;;;;;;5055427;28;20029;-72
2021/06/10 07:41:37;;;;;;;3.53;2.80;;;22.50;71.60;;;;;;5053476;28;20025;-71
2021/06/10 07:44:03;;;;;;;4.45;3.33;;;22.50;67.50;;;;;;5054836;28;20031;-73
2021/06/10 07:46:29;;;;;;;4.20;2.85;;;22.60;68.20;;;;;;5055002;28;20036;-70
2021/06/10 07:48:55;;;;;;;5.95;3.20;;;22.60;68.90;;;;;;5055047;28;20029;-74
2021/06/10 07:51:21;;;;;;;5.30;3.17;;;22.60;68.80;;;;;;5055341;28;20079;-71
2021/06/10 07:53:46;;;;;;;15.90;4.97;;;22.60;69.00;;;;;;5054760;28;20037;-71
2021/06/10 07:56:12;;;;;;;10.65;5.28;;;22.60;70.60;;;;;;5054366;28;20021;-72
2021/06/10 07:58:38;;;;;;;14.82;5.10;;;22.60;71.40;;;;;;5054970;28;20040;-75
2021/06/10 08:01:04;;;;;;;9.63;4.55;;;22.60;72.30;;;;;;5055625;28;20025;-73
2021/06/10 08:03:30;;;;;;;13.18;5.25;;;22.70;72.80;;;;;;5055293;28;20036;-75
2021/06/10 08:05:58;;;;;;;8.45;4.20;;;22.70;72.70;;;;;;5054884;28;20382;-72
2021/06/10 08:08:24;;;;;;;12.52;4.40;;;22.70;72.80;;;;;;5055339;28;20028;-74
2021/06/10 08:10:51;;;;;;;8.85;4.32;;;22.80;72.60;;;;;;5055388;28;20052;-71
2021/06/10 08:13:18;;;;;;;6.85;4.35;;;22.80;72.60;;;;;;5055050;28;20032;-75
2021/06/10 08:15:45;;;;;;;9.88;4.07;;;22.80;73.40;;;;;;5054979;28;20070;-73
2021/06/10 08:18:12;;;;;;;10.43;4.38;;;22.90;72.30;;;;;;5048806;28;20044;-74
2021/06/10 08:20:38;;;;;;;9.63;4.28;;;22.90;70.80;;;;;;4953820;28;20055;-76
2021/06/10 08:23:04;;;;;;;9.27;4.20;;;23.10;70.40;;;;;;4953950;28;20039;-75
2021/06/10 08:25:31;;;;;;;12.90;4.13;;;23.20;69.70;;;;;;4953656;28;20479;-74
2021/06/10 08:27:59;;;;;;;10.40;4.38;;;23.20;69.30;;;;;;4953600;28;20058;-74
2021/06/10 08:30:25;;;;;;;8.50;4.30;;;23.30;69.10;;;;;;4953317;28;20098;-70
2021/06/10 08:32:51;;;;;;;7.32;3.80;;;23.30;68.80;;;;;;4954488;28;20073;-70
2021/06/10 08:35:18;;;;;;;6.75;3.70;;;23.30;68.90;;;;;;4954015;28;20062;-70
2021/06/10 08:37:44;;;;;;;8.10;4.32;;;23.30;69.20;;;;;;4953915;28;20057;-70
2021/06/10 08:40:11;;;;;;;7.00;4.32;;;23.40;69.20;;;;;;4953145;28;20464;-74
2021/06/10 08:42:38;;;;;;;7.93;4.10;;;23.40;69.10;;;;;;4952305;28;20413;-70
2021/06/10 08:45:08;;;;;;;6.28;4.15;;;23.40;69.60;;;;;;4953525;28;20023;-70
2021/06/10 08:47:36;;;;;;;8.52;4.88;;;23.40;70.10;;;;;;4953793;28;20031;-69
2021/06/10 08:50:03;;;;;;;9.88;4.60;;;23.50;70.00;;;;;;4953905;28;20019;-70
2021/06/10 08:52:31;;;;;;;15.82;5.10;;;23.60;69.80;;;;;;4953993;28;20403;-70
2021/06/10 08:54:57;;;;;;;9.35;5.25;;;23.70;70.00;;;;;;4953664;28;20098;-70
2021/06/10 08:57:23;;;;;;;9.43;5.45;;;23.80;70.50;;;;;;4953507;28;20119;-70
2021/06/10 08:59:49;;;;;;;7.38;3.97;;;23.90;71.30;;;;;;4953779;29;20043;-69
2021/06/10 09:02:15;;;;;;;4.32;3.90;;;24.00;69.60;;;;;;4953446;28;20019;-70
2021/06/10 09:04:40;;;;;;;9.32;4.07;;;24.00;67.90;;;;;;4953571;28;20395;-70
2021/06/10 09:07:08;;;;;;;5.53;3.22;;;24.00;67.40;;;;;;4953942;28;20111;-70
2021/06/10 09:09:39;;;;;;;12.73;4.03;;;24.00;65.70;;;;;;4953235;28;20496;-70
2021/06/10 09:12:07;;;;;;;6.00;3.58;;;24.10;64.30;;;;;;4953667;28;20023;-70
2021/06/10 09:15:09;;;;;;;9.75;3.80;;;24.00;63.50;;;;;;4953607;28;20024;-70
2021/06/10 09:17:37;;;;;;;7.03;3.65;;;24.10;64.70;;;;;;4951863;28;20058;-70
2021/06/10 09:20:23;;;;;;;9.18;4.03;;;24.00;64.90;;;;;;4953220;28;20031;-69
2021/06/10 09:23:07;;;;;;;10.30;4.50;;;24.00;64.40;;;;;;4952360;28;20149;-71
2021/06/10 09:25:33;;;;;;;8.85;3.92;;;24.00;63.80;;;;;;4953126;28;20417;-69
2021/06/10 09:28:03;;;;;;;11.27;4.35;;;24.10;63.60;;;;;;4953443;28;20031;-70
2021/06/10 09:30:48;;;;;;;7.18;4.03;;;24.10;64.70;;;;;;4951770;28;20392;-69
2021/06/10 09:33:19;;;;;;;9.73;4.18;;;24.10;65.30;;;;;;4953065;28;20047;-69
2021/06/10 09:35:46;;;;;;;7.57;3.92;;;24.10;65.70;;;;;;4952977;28;20019;-69
2021/06/10 09:38:21;;;;;;;8.63;3.83;;;24.20;65.40;;;;;;4952458;28;20118;-70
2021/06/10 09:41:01;;;;;;;4.70;3.00;;;24.20;64.30;;;;;;4952722;28;20019;-70
2021/06/10 09:43:44;;;;;;;8.02;3.47;;;24.30;63.70;;;;;;4951628;28;20058;-70
2021/06/10 09:46:10;;;;;;;3.35;3.03;;;24.30;61.00;;;;;;4951268;28;20035;-69
2021/06/10 09:48:35;;;;;;;6.47;3.20;;;24.40;61.10;;;;;;4952170;28;20114;-69
2021/06/10 09:51:02;;;;;;;9.52;3.70;;;24.50;62.50;;;;;;4952419;28;20031;-69
2021/06/10 09:53:29;;;;;;;3.83;3.35;;;24.60;62.00;;;;;;4952698;28;20024;-69
2021/06/10 09:56:06;;;;;;;8.43;3.00;;;24.70;61.90;;;;;;4952778;28;20503;-75
2021/06/10 09:58:38;;;;;;;7.43;3.00;;;24.60;59.90;;;;;;4952842;28;20047;-69
2021/06/10 10:01:16;;;;;;;9.18;3.55;;;24.60;59.80;;;;;;4952957;28;20037;-68
2021/06/10 10:03:45;;;;;;;4.53;3.28;;;24.60;60.60;;;;;;4952964;28;20023;-68
2021/06/10 10:06:20;;;;;;;3.75;3.20;;;24.60;59.70;;;;;;4952809;28;20126;-68
2021/06/10 10:09:00;;;;;;;3.97;3.22;;;24.50;60.00;;;;;;4952797;28;20019;-68
2021/06/10 10:11:26;;;;;;;4.75;3.47;;;24.50;60.90;;;;;;4952315;28;20034;-68
2021/06/10 10:13:55;;;;;;;5.00;3.28;;;24.60;59.80;;;;;;4952520;28;20034;-69
2021/06/10 10:16:26;;;;;;;7.85;2.85;;;24.60;59.80;;;;;;4952402;28;20085;-69
2021/06/10 10:18:54;;;;;;;6.47;3.00;;;24.60;59.80;;;;;;4952427;28;20036;-68
2021/06/10 10:21:27;;;;;;;4.30;3.30;;;24.70;60.20;;;;;;4951824;29;20027;-69
2021/06/10 10:23:56;;;;;;;6.78;3.05;;;24.80;58.30;;;;;;4952699;28;20125;-68
2021/06/10 10:26:22;;;;;;;3.67;3.25;;;25.00;59.10;;;;;;4952181;28;20050;-69
2021/06/10 10:28:48;;;;;;;3.22;2.80;;;25.20;80.50;;;;;;4952083;28;20054;-68
2021/06/10 10:31:14;;;;;;;6.53;3.13;;;25.30;59.40;;;;;;4951403;28;20054;-68
2021/06/10 10:33:48;;;;;;;3.88;3.20;;;25.40;56.90;;;;;;4951579;28;20075;-69
2021/06/10 10:36:31;;;;;;;3.22;2.92;;;25.40;57.70;;;;;;4951860;28;20055;-75
2021/06/10 10:38:59;;;;;;;4.32;2.88;;;25.60;58.40;;;;;;4950809;28;20028;-70
2021/06/10 10:41:24;;;;;;;5.65;2.90;;;25.60;56.70;;;;;;4951393;28;20102;-73
2021/06/10 10:44:10;;;;;;;4.57;3.20;;;25.80;73.20;;;;;;4951035;28;20122;-70
2021/06/10 10:46:36;;;;;;;3.85;2.88;;;25.80;59.00;;;;;;4951904;28;20111;-75
2021/06/10 10:49:20;;;;;;;4.50;3.00;;;26.00;58.10;;;;;;4951688;28;20110;-70
2021/06/10 10:51:46;;;;;;;4.70;2.58;;;26.00;55.60;;;;;;4952015;28;20081;-69
2021/06/10 10:54:31;;;;;;;4.10;2.72;;;26.10;55.80;;;;;;4951856;28;20392;-75
2021/06/10 10:56:57;;;;;;;6.75;3.20;;;26.30;55.50;;;;;;4952100;28;20496;-75
2021/06/10 10:59:23;;;;;;;3.47;2.80;;;26.30;54.90;;;;;;4952077;28;20114;-69
2021/06/10 11:02:05;;;;;;;5.63;2.58;;;26.40;53.60;;;;;;4952046;28;20035;-68
2021/06/10 11:04:50;;;;;;;3.60;2.92;;;26.50;55.00;;;;;;4950961;28;20553;-69
2021/06/10 11:07:40;;;;;;;4.80;2.60;;;26.60;60.20;;;;;;4951705;28;20027;-75
2021/06/10 11:10:15;;;;;;;3.38;2.90;;;26.70;62.10;;;;;;4951388;28;20111;-68
2021/06/10 11:12:51;;;;;;;3.10;2.80;;;26.70;53.80;;;;;;4950739;28;20024;-69
2021/06/10 11:15:23;;;;;;;6.20;3.20;;;26.70;51.10;;;;;;4951075;28;20027;-68
2021/06/10 11:17:55;;;;;;;3.80;3.40;;;26.60;51.20;;;;;;4950278;28;20508;-69
2021/06/10 11:20:42;;;;;;;4.47;2.80;;;26.50;51.90;;;;;;4951428;28;20110;-68
2021/06/10 11:23:20;;;;;;;4.38;2.80;;;26.40;52.80;;;;;;4950761;28;20035;-73
2021/06/10 11:25:53;;;;;;;5.90;2.88;;;26.30;53.40;;;;;;4950307;28;20073;-68
2021/06/10 11:28:23;;;;;;;5.18;3.00;;;26.40;53.00;;;;;;4951153;28;20032;-69
2021/06/10 11:30:51;;;;;;;5.18;2.90;;;26.30;52.00;;;;;;4951578;28;20028;-69
2021/06/10 11:33:17;;;;;;;5.18;3.08;;;26.40;52.10;;;;;;4951540;28;20055;-68
2021/06/10 11:35:50;;;;;;;3.40;2.65;;;26.30;52.00;;;;;;4951810;28;20388;-69
2021/06/10 11:38:23;;;;;;;3.58;2.95;;;26.30;52.70;;;;;;4951232;28;20058;-68
2021/06/10 11:41:26;;;;;;;3.35;2.80;;;26.30;49.90;;;;;;4952273;28;20475;-69
2021/06/10 11:43:57;;;;;;;4.70;2.83;;;26.40;52.50;;;;;;4962331;28;20176;-69
2021/06/10 11:46:34;;;;;;;3.30;2.90;;;26.40;52.60;;;;;;4954792;28;20503;-75
2021/06/10 11:49:00;;;;;;;4.53;2.70;;;26.50;50.10;;;;;;4954130;28;20031;-71
2021/06/10 11:51:38;;;;;;;6.75;3.00;;;26.60;50.80;;;;;;4951091;28;20050;-71
2021/06/10 11:54:07;;;;;;;3.10;2.80;;;;;;;;;;4952010;28;20024;-70
2021/06/10 11:56:33;;;;;;;5.22;2.70;;;26.90;61.40;;;;;;4953081;28;20031;-72
2021/06/10 11:59:23;;;;;;;3.03;2.72;;;26.90;51.30;;;;;;4952764;28;20123;-71
2021/06/10 12:02:01;;;;;;;4.05;2.80;;;27.00;49.90;;;;;;4953983;28;20026;-71
2021/06/10 12:04:32;;;;;;;3.10;2.75;;;27.10;50.10;;;;;;4953214;28;20480;-70
2021/06/10 12:07:24;;;;;;;4.68;2.85;;;27.10;50.70;;;;;;4953887;28;20030;-69
2021/06/10 12:09:54;;;;;;;;;;;27.20;51.00;;;;;;4952546;28;20539;-69
2021/06/10 12:12:38;;;;;;;3.83;2.85;;;27.20;49.80;;;;;;4952834;28;19914;-68
2021/06/10 12:15:05;;;;;;;5.68;3.05;;;27.20;46.20;;;;;;4954330;28;20023;-69
2021/06/10 12:18:04;;;;;;;3.65;2.83;;;27.10;49.70;;;;;;4953091;28;20531;-70
2021/06/10 12:20:33;;;;;;;3.10;2.70;;;27.10;50.30;;;;;;4950900;28;20031;-68
2021/06/10 12:23:01;;;;;;;4.28;2.90;;;27.20;50.80;;;;;;4951699;28;20503;-69
2021/06/10 12:25:29;;;;;;;2.90;2.60;;;27.20;50.40;;;;;;4953983;28;20031;-68
2021/06/10 12:27:58;;;;;;;3.10;2.80;;;27.30;48.00;;;;;;4954150;28;20024;-69
2021/06/10 12:30:25;;;;;;;5.65;2.63;;;27.30;48.60;;;;;;4953942;28;20464;-70
2021/06/10 12:32:51;;;;;;;2.70;2.50;;;27.40;50.10;;;;;;4952797;28;20089;-69
2021/06/10 12:35:21;;;;;;;5.82;3.15;;;27.30;47.90;;;;;;4953150;28;20062;-69
2021/06/10 12:37:53;;;;;;;3.47;2.67;;;27.30;48.20;;;;;;4952883;28;20035;-70
2021/06/10 12:40:19;;;;;;;3.53;2.90;;;27.20;49.40;;;;;;4953367;28;20078;-71
2021/06/10 12:43:04;;;;;;;3.55;2.78;;;27.20;49.30;;;;;;4951794;28;20019;-70
2021/06/10 12:45:30;;;;;;;2.55;2.35;;;27.10;48.10;;;;;;4953057;28;20471;-70
2021/06/10 12:47:55;;;;;;;4.20;2.55;;;27.00;48.40;;;;;;4953024;28;20114;-71
2021/06/10 12:50:21;;;;;;;2.58;2.38;;;27.00;50.80;;;;;;4952695;28;20506;-70